Time;durP1;ratioP1;P1;durP2;ratioP2;P2;SDS_P1;SDS_P2;PMS_P1;PMS_P2;Temp;Humidity;BMP_temperature;BMP_pressure;BME280_temperature;BME280_humidity;BME280_pressure;Samples;Min_cycle;Max_cycle;Signal;HPM_P1;HPM_P2
2021/10/02 00:41:34;;;;;;;18.80;14.63;;;;;;;15.09;64.49;100613.81;4480900;32;33736;-48
2021/10/02 00:46:49;;;;;;;18.92;15.10;;;;;;;15.13;64.48;100610.28;4480707;32;35877;-47
2021/10/02 00:49:16;;;;;;;19.08;15.02;;;;;;;15.06;64.74;100609.47;4466741;32;34488;-47
2021/10/02 00:51:45;;;;;;;20.33;15.15;;;;;;;15.09;64.81;100611.19;4466561;32;34095;-47
2021/10/02 00:54:12;;;;;;;22.17;15.95;;;;;;;15.16;64.43;100603.28;4480842;32;34585;-47
2021/10/02 00:56:39;;;;;;;23.83;17.20;;;;;;;15.07;64.78;100605.94;4480506;32;34747;-48
2021/10/02 00:59:07;;;;;;;26.35;16.83;;;;;;;14.96;65.31;100610.37;4480555;32;34434;-48
2021/10/02 01:01:51;;;;;;;21.90;15.50;;;;;;;15.03;65.32;100598.97;4480522;32;33476;-47
2021/10/02 01:04:23;;;;;;;26.12;16.42;;;;;;;15.17;64.75;100598.91;4480188;32;34726;-48
2021/10/02 01:07:07;;;;;;;28.62;17.17;;;;;;;15.07;64.80;100600.69;4479979;32;35148;-48
2021/10/02 01:09:49;;;;;;;24.85;16.90;;;;;;;15.22;64.71;100603.25;4480380;32;34650;-47
2021/10/02 01:12:31;;;;;;;23.15;16.15;;;;;;;15.27;64.49;100600.59;4480050;32;33981;-49
2021/10/02 01:15:05;;;;;;;23.50;16.62;;;;;;;15.21;64.75;100598.91;4466281;32;35238;-47
2021/10/02 01:17:45;;;;;;;24.37;16.85;;;;;;;15.16;65.01;100600.66;4466156;32;35030;-47
2021/10/02 01:20:42;;;;;;;26.33;16.25;;;;;;;15.29;64.40;100591.84;4465902;32;34609;-48
2021/10/02 01:23:28;;;;;;;25.12;16.67;;;;;;;15.28;64.20;100599.72;4453175;32;33271;-47
2021/10/02 01:26:32;;;;;;;26.48;16.17;;;;;;;15.15;64.67;100598.03;4479800;32;34681;-48
2021/10/02 01:29:02;;;;;;;24.05;16.95;;;;;;;15.08;64.96;100602.44;4481720;32;34740;-48
2021/10/02 01:31:37;;;;;;;23.62;15.55;;;;;;;15.29;64.24;100597.06;4482175;32;34953;-50
2021/10/02 01:34:14;;;;;;;23.08;16.40;;;;;;;15.26;64.19;100599.72;4482325;32;33727;-47
2021/10/02 01:37:04;;;;;;;23.45;16.30;;;;;;;15.26;64.25;100604.94;4468533;32;34035;-48
2021/10/02 01:47:55;;;;;;;27.67;16.75;;;;;;;15.11;64.14;100591.97;4469762;32;34350;-52
2021/10/02 01:50:25;;;;;;;23.83;16.15;;;;;;;15.10;64.20;100598.06;4481911;32;35848;-51
2021/10/02 01:52:55;;;;;;;29.80;17.92;;;;;;;15.00;64.77;100604.22;4482126;32;35267;-51
2021/10/02 01:55:23;;;;;;;22.52;16.20;;;;;;;15.12;64.25;100598.94;4467845;32;33871;-52
2021/10/02 01:57:57;;;;;;;23.35;16.35;;;;;;;15.08;64.04;100593.72;4467749;32;34419;-52
2021/10/02 02:00:27;;;;;;;22.65;15.27;;;;;;;15.05;63.95;100599.84;4467873;32;35506;-51
2021/10/02 02:02:57;;;;;;;22.05;15.27;;;;;;;15.02;63.87;100601.62;4468171;32;35433;-54
2021/10/02 02:05:27;;;;;;;23.45;16.30;;;;;;;14.98;64.09;100595.50;4482064;32;33455;-47
2021/10/02 02:07:58;;;;;;;23.02;15.88;;;;;;;14.95;63.82;100598.19;4468046;32;34268;-49
2021/10/02 02:10:26;;;;;;;25.17;16.48;;;;;;;15.01;63.75;100599.87;4467851;32;35870;-48
2021/10/02 02:12:57;;;;;;;21.42;15.60;;;;;;;14.83;63.89;100596.47;4481979;32;34133;-47
2021/10/02 02:15:27;;;;;;;25.08;16.20;;;;;;;14.74;64.22;100598.25;4468045;32;33808;-47
2021/10/02 02:18:04;;;;;;;25.65;15.65;;;;;;;14.85;63.85;100592.13;4482007;32;34033;-47
2021/10/02 02:20:34;;;;;;;22.37;15.85;;;;;;;14.81;64.23;100598.22;4467794;32;36095;-49
2021/10/02 02:23:03;;;;;;;24.23;15.60;;;;;;;14.72;64.30;100593.03;4467686;32;34769;-48
2021/10/02 02:25:31;;;;;;;22.62;16.27;;;;;;;14.81;63.92;100586.88;4467702;32;33780;-48
2021/10/02 02:28:00;;;;;;;25.95;16.62;;;;;;;14.76;64.03;100589.50;4482294;32;34745;-48
2021/10/02 02:30:27;;;;;;;22.65;15.88;;;;;;;14.73;64.12;100593.91;4481851;32;35121;-48
2021/10/02 02:32:55;;;;;;;23.90;15.55;;;;;;;14.53;64.85;100582.63;4454748;32;34525;-47
2021/10/02 02:35:23;;;;;;;24.65;15.35;;;;;;;14.77;63.95;100585.16;4481878;32;33597;-47
2021/10/02 02:37:51;;;;;;;22.83;15.98;;;;;;;14.67;64.00;100586.06;4482178;32;34152;-48
2021/10/02 02:40:19;;;;;;;20.12;14.77;;;;;;;14.64;64.17;100578.25;4481498;32;35626;-49
2021/10/02 02:42:47;;;;;;;22.05;15.45;;;;;;;14.60;64.17;100580.00;4467991;32;34708;-47
2021/10/02 02:45:15;;;;;;;24.83;16.15;;;;;;;14.60;64.08;100576.50;4467964;32;34249;-47
2021/10/02 02:48:01;;;;;;;21.45;15.80;;;;;;;14.56;64.21;100574.78;4467577;32;34146;-48
2021/10/02 02:50:39;;;;;;;21.05;16.02;;;;;;;14.48;64.25;100571.31;4467863;32;35232;-48
2021/10/02 02:53:12;;;;;;;23.87;16.02;;;;;;;14.40;64.06;100573.09;4467824;32;34986;-49
2021/10/02 02:55:47;;;;;;;22.75;15.30;;;;;;;14.45;63.97;100580.06;4467956;32;33618;-47
2021/10/02 02:58:17;;;;;;;22.48;15.95;;;;;;;14.39;64.29;100576.59;4467998;32;34100;-48
2021/10/02 03:01:00;;;;;;;23.70;15.00;;;;;;;14.49;63.71;100568.72;4481664;32;35896;-47
2021/10/02 03:03:30;;;;;;;21.45;14.95;;;;;;;14.46;63.29;100567.84;4469299;32;34536;-47
2021/10/02 03:06:03;;;;;;;23.12;16.20;;;;;;;14.36;63.83;100566.16;4467679;32;33984;-48
2021/10/02 03:08:32;;;;;;;20.08;14.65;;;;;;;14.20;63.79;100563.53;4481871;32;35258;-48
2021/10/02 03:11:02;;;;;;;22.60;15.80;;;;;;;14.29;63.35;100567.84;4467389;32;34748;-48
2021/10/02 03:13:34;;;;;;;26.42;16.87;;;;;;;14.19;63.60;100568.78;4467897;32;34348;-47
2021/10/02 03:16:12;;;;;;;22.23;16.02;;;;;;;14.22;63.85;100564.41;4467901;32;35011;-47
2021/10/02 03:18:42;;;;;;;20.55;15.73;;;;;;;14.04;64.22;100563.56;4481704;32;34946;-47
2021/10/02 03:21:11;;;;;;;20.02;15.07;;;;;;;14.12;63.66;100561.81;4455357;32;35539;-47
2021/10/02 03:23:39;;;;;;;23.60;15.32;;;;;;;14.05;64.02;100557.44;4481980;32;34433;-48
2021/10/02 03:26:07;;;;;;;23.05;15.85;;;;;;;14.09;63.87;100559.22;4481832;32;33510;-48
2021/10/02 03:28:35;;;;;;;28.45;16.30;;;;;;;13.93;64.19;100555.72;4481860;32;34547;-47
2021/10/02 03:31:04;;;;;;;25.30;15.48;;;;;;;13.75;64.82;100558.38;4467612;32;35834;-48
2021/10/02 03:33:32;;;;;;;22.67;15.77;;;;;;;13.95;64.46;100547.91;4467506;32;34908;-47
2021/10/02 03:35:59;;;;;;;20.60;15.38;;;;;;;14.02;64.00;100557.47;4467446;32;34866;-48
2021/10/02 03:38:27;;;;;;;20.65;14.98;;;;;;;13.95;64.25;100553.97;4467563;32;34781;-47
2021/10/02 03:41:01;;;;;;;22.83;15.52;;;;;;;14.05;64.00;100554.84;4481654;32;35331;-47
2021/10/02 03:43:34;;;;;;;21.10;15.73;;;;;;;13.96;64.00;100552.25;4481456;32;34625;-48
2021/10/02 03:46:02;;;;;;;19.92;14.40;;;;;;;13.93;64.14;100550.50;4467341;32;33401;-47
2021/10/02 03:48:30;;;;;;;21.87;15.10;;;;;;;14.07;63.93;100553.13;4481895;32;33879;-48
2021/10/02 03:50:58;;;;;;;22.00;15.40;;;;;;;14.03;63.87;100552.25;4480249;32;36203;-48
2021/10/02 03:53:27;;;;;;;20.88;14.50;;;;;;;13.99;63.62;100560.97;4481587;32;34900;-49
2021/10/02 03:55:55;;;;;;;19.50;14.05;;;;;;;14.09;63.12;100549.63;4467635;32;34475;-48
2021/10/02 03:58:23;;;;;;;22.85;15.18;;;;;;;13.93;63.25;100545.28;4481748;32;34854;-48
2021/10/02 04:00:51;;;;;;;20.58;15.35;;;;;;;13.80;63.48;100550.53;4481607;32;35194;-47
2021/10/02 04:03:18;;;;;;;21.02;14.60;;;;;;;13.78;63.61;100547.94;4467686;32;34370;-48
2021/10/02 04:05:46;;;;;;;21.12;14.75;;;;;;;13.82;63.41;100546.16;4481346;32;33649;-48
2021/10/02 04:08:13;;;;;;;18.60;14.27;;;;;;;13.86;63.10;100548.78;4481572;32;34078;-49
2021/10/02 04:10:41;;;;;;;19.37;13.77;;;;;;;13.84;63.07;100549.66;4481169;32;35290;-49
2021/10/02 04:13:08;;;;;;;19.90;15.48;;;;;;;13.80;62.82;100554.03;4481502;32;34483;-48
2021/10/02 04:15:36;;;;;;;24.15;16.90;;;;;;;13.58;63.31;100552.28;4481161;32;34289;-52
2021/10/02 04:18:03;;;;;;;22.05;15.18;;;;;;;13.45;63.75;100550.56;4481224;32;34379;-51
2021/10/02 04:20:31;;;;;;;25.15;15.30;;;;;;;13.54;63.44;100553.19;4481222;32;35230;-52
2021/10/02 04:22:58;;;;;;;22.80;15.38;;;;;;;13.42;63.45;100559.28;4466829;32;35669;-52
2021/10/02 04:25:26;;;;;;;20.83;14.85;;;;;;;13.50;63.31;100565.34;4480891;32;33941;-53
2021/10/02 04:27:54;;;;;;;18.45;14.38;;;;;;;13.50;63.19;100564.50;4481016;32;34703;-54
2021/10/02 04:30:22;;;;;;;24.20;16.20;;;;;;;13.43;63.43;100561.00;4480830;32;35642;-47
2021/10/02 04:32:49;;;;;;;24.20;14.80;;;;;;;13.43;63.29;100561.00;4481723;32;35062;-47
2021/10/02 04:35:17;;;;;;;22.15;15.02;;;;;;;13.32;63.67;100559.25;4481410;32;34356;-47
2021/10/02 04:37:45;;;;;;;22.10;15.10;;;;;;;13.33;63.65;100556.66;4481494;32;34183;-47
2021/10/02 04:40:13;;;;;;;20.30;14.55;;;;;;;13.26;63.63;100554.94;4481209;32;35142;-49
2021/10/02 04:42:40;;;;;;;22.23;15.35;;;;;;;13.35;63.48;100560.16;4480984;32;34696;-48
2021/10/02 04:45:08;;;;;;;22.35;13.98;;;;;;;13.26;63.80;100559.28;4481026;32;34103;-47
2021/10/02 04:47:36;;;;;;;22.83;14.98;;;;;;;13.09;64.00;100561.84;4480795;32;33881;-49
2021/10/02 04:50:03;;;;;;;22.58;14.48;;;;;;;13.16;63.87;100563.63;4466721;32;34801;-47
2021/10/02 04:52:31;;;;;;;20.30;14.50;;;;;;;13.10;64.30;100567.97;4480596;32;34585;-47
2021/10/02 04:54:59;;;;;;;23.65;13.98;;;;;;;13.20;63.95;100574.91;4480535;32;34467;-47
2021/10/02 04:57:26;;;;;;;21.62;14.43;;;;;;;13.01;64.69;100583.56;4463605;32;33605;-48
2021/10/02 04:59:53;;;;;;;24.48;14.25;;;;;;;13.05;64.82;100569.66;4464772;32;35992;-47
2021/10/02 05:02:21;;;;;;;22.10;14.52;;;;;;;13.22;64.63;100571.44;4465463;32;34438;-47
2021/10/02 05:04:49;;;;;;;23.15;14.95;;;;;;;13.24;64.66;100576.69;4467127;32;33588;-47
2021/10/02 05:07:16;;;;;;;26.35;15.35;;;;;;;13.27;64.84;100574.06;4466878;32;35136;-49
2021/10/02 05:09:44;;;;;;;24.12;15.23;;;;;;;13.32;65.07;100574.94;4466809;32;35007;-47
2021/10/02 05:12:12;;;;;;;26.83;16.98;;;;;;;13.32;65.39;100577.56;4466599;32;34505;-50
2021/10/02 05:14:39;;;;;;;23.35;14.87;;;;;;;13.46;65.39;100581.03;4465726;32;34301;-47
2021/10/02 05:17:10;;;;;;;20.85;14.50;;;;;;;13.46;65.61;100581.03;4466694;32;35057;-47
2021/10/02 05:19:38;;;;;;;21.75;15.43;;;;;;;13.61;65.49;100588.91;4466857;32;35314;-47
2021/10/02 05:22:07;;;;;;;20.12;14.10;;;;;;;13.65;65.33;100595.84;4465787;32;34728;-47
2021/10/02 05:24:37;;;;;;;22.33;15.23;;;;;;;13.77;65.33;100594.97;4466889;32;34212;-47
2021/10/02 05:27:08;;;;;;;23.25;15.48;;;;;;;13.75;65.48;100587.16;4466944;32;34073;-47
2021/10/02 05:29:38;;;;;;;26.25;16.55;;;;;;;13.76;65.71;100594.13;4466954;32;34794;-47
2021/10/02 05:32:07;;;;;;;19.23;14.80;;;;;;;13.84;65.42;100592.38;4467002;32;35178;-47
2021/10/02 05:34:35;;;;;;;21.20;15.43;;;;;;;13.79;65.94;100593.22;4466954;32;33641;-47
2021/10/02 05:37:02;;;;;;;25.95;15.02;;;;;;;13.88;65.68;100588.88;4466976;32;34055;-48
2021/10/02 05:39:30;;;;;;;21.90;16.00;;;;;;;14.03;65.89;100596.69;4466891;32;34901;-48
2021/10/02 05:41:57;;;;;;;22.50;16.77;;;;;;;14.01;66.19;100603.69;4467127;32;34509;-50
2021/10/02 05:44:25;;;;;;;25.65;16.70;;;;;;;14.05;66.31;100607.16;4467082;32;34196;-48
2021/10/02 05:46:52;;;;;;;24.35;14.77;;;;;;;14.17;66.20;100604.50;4467256;32;35043;-48
2021/10/02 05:49:20;;;;;;;20.70;16.27;;;;;;;14.22;66.29;100595.78;4466322;32;35441;-47
2021/10/02 05:51:47;;;;;;;25.27;15.98;;;;;;;14.27;66.47;100601.88;4467173;32;34179;-47
2021/10/02 05:54:17;;;;;;;25.70;15.75;;;;;;;14.45;65.87;100607.97;4465782;32;32980;-48
2021/10/02 05:56:44;;;;;;;23.17;16.37;;;;;;;14.70;65.34;100604.38;4470628;32;33961;-48
2021/10/02 05:59:12;;;;;;;23.12;14.63;;;;;;;14.66;65.75;100598.31;4482995;32;34966;-48
2021/10/02 06:01:39;;;;;;;22.98;15.27;;;;;;;14.90;65.36;100607.81;4468583;32;34310;-48
2021/10/02 06:04:07;;;;;;;21.95;14.02;;;;;;;15.04;64.45;100605.09;4482433;32;33683;-47
2021/10/02 06:06:34;;;;;;;16.92;11.80;;;;;;;15.28;64.04;100600.59;4482298;32;34371;-51
2021/10/02 06:09:02;;;;;;;19.45;12.75;;;;;;;15.58;61.66;100605.63;4482731;32;35102;-47
2021/10/02 06:11:30;;;;;;;17.05;11.60;;;;;;;15.82;60.92;100606.31;4482303;32;34222;-48
2021/10/02 06:13:58;;;;;;;17.17;11.23;;;;;;;16.02;60.34;100604.41;4482001;32;34281;-48
2021/10/02 06:16:32;;;;;;;16.02;11.35;;;;;;;16.27;58.31;100603.25;4482571;32;34788;-48
2021/10/02 06:18:59;;;;;;;14.52;10.63;;;;;;;16.48;56.48;100603.00;4482782;32;35687;-50
2021/10/02 06:21:27;;;;;;;18.48;11.82;;;;;;;16.56;55.58;100595.97;4468792;32;35132;-50
2021/10/02 06:23:58;;;;;;;22.17;12.10;;;;;;;16.62;55.28;100598.50;4482849;32;34276;-52
2021/10/02 06:26:35;;;;;;;15.20;9.88;;;;;;;16.61;57.05;100604.66;4468563;32;34033;-50
2021/10/02 06:29:03;;;;;;;11.68;8.57;;;;;;;16.77;54.13;100594.81;4482965;32;35040;-48
2021/10/02 06:31:30;;;;;;;15.63;9.07;;;;;;;16.90;52.99;100599.03;4483140;32;34391;-49
2021/10/02 06:33:57;;;;;;;13.40;10.00;;;;;;;17.00;52.12;100597.16;4483012;32;33610;-50
2021/10/02 06:36:27;;;;;;;17.25;9.63;;;;;;;17.07;52.32;100604.91;4482988;32;34184;-53
2021/10/02 06:38:55;;;;;;;13.50;9.65;;;;;;;17.10;52.53;100601.38;4482863;32;35844;-51
2021/10/02 06:41:23;;;;;;;14.93;10.18;;;;;;;17.29;50.64;100598.47;4483556;32;34369;-50
2021/10/02 06:43:51;;;;;;;12.32;8.40;;;;;;;17.44;51.21;100605.25;4470680;32;33328;-54
2021/10/02 06:46:24;;;;;;;57.88;13.07;;;;;;;17.53;53.88;100607.78;4469714;32;33958;-51
2021/10/02 06:48:51;;;;;;;19.12;9.15;;;;;;;17.87;49.01;100600.19;4483038;32;34752;-52
2021/10/02 06:51:19;;;;;;;16.20;8.60;;;;;;;18.05;48.26;100606.00;4483237;32;34399;-50
2021/10/02 06:53:46;;;;;;;16.67;8.30;;;;;;;18.24;47.04;100596.00;4469446;32;33518;-53
2021/10/02 06:56:14;;;;;;;12.00;8.23;;;;;;;18.32;46.78;100598.50;4482901;32;34049;-49
2021/10/02 06:58:41;;;;;;;15.93;8.32;;;;;;;18.45;46.97;100608.75;4483033;32;34917;-49
2021/10/02 07:01:09;;;;;;;19.30;8.52;;;;;;;18.36;46.26;100598.41;4483096;32;34310;-52
2021/10/02 07:03:37;;;;;;;11.35;8.02;;;;;;;18.47;44.88;100600.88;4483269;32;33520;-50
2021/10/02 07:06:05;;;;;;;15.02;8.52;;;;;;;18.56;44.89;100600.69;4483042;32;34221;-49
2021/10/02 07:08:32;;;;;;;15.32;9.40;;;;;;;18.08;44.83;100608.59;4482248;32;35159;-47
2021/10/02 07:11:00;;;;;;;14.05;8.77;;;;;;;18.13;45.16;100605.88;4482895;32;34846;-47
2021/10/02 07:13:27;;;;;;;14.82;8.90;;;;;;;18.30;45.25;100605.56;4482950;32;34175;-48
2021/10/02 07:15:55;;;;;;;17.65;8.63;;;;;;;18.31;45.64;100607.28;4482539;32;34803;-49
2021/10/02 07:18:23;;;;;;;19.98;7.85;;;;;;;18.32;44.91;100609.03;4482776;32;35009;-48
2021/10/02 07:20:50;;;;;;;11.45;7.55;;;;;;;18.42;44.62;100600.06;4483144;32;34514;-50
2021/10/02 07:23:20;;;;;;;15.32;8.48;;;;;;;18.39;45.14;100605.38;4483126;32;33794;-48
2021/10/02 07:25:48;;;;;;;11.50;7.87;;;;;;;18.53;43.76;100604.25;4482828;32;34272;-48
2021/10/02 07:28:15;;;;;;;16.00;8.52;;;;;;;18.50;44.25;100603.44;4482651;32;35986;-51
2021/10/02 07:30:43;;;;;;;12.85;7.93;;;;;;;18.27;44.33;100603.84;4482450;32;34518;-48
2021/10/02 07:33:10;;;;;;;11.98;8.43;;;;;;;18.34;45.01;100601.97;4468360;32;33664;-48
2021/10/02 07:35:38;;;;;;;13.55;8.18;;;;;;;18.27;45.32;100612.63;4483102;32;33928;-49
2021/10/02 07:38:05;;;;;;;16.48;8.00;;;;;;;18.46;44.90;100607.03;4468566;32;36003;-48
2021/10/02 07:40:33;;;;;;;11.77;7.30;;;;;;;18.51;44.99;100618.34;4482746;32;34429;-49
2021/10/02 07:43:02;;;;;;;10.75;7.43;;;;;;;18.58;43.79;100618.22;4483181;32;33576;-48
2021/10/02 07:45:31;;;;;;;12.20;7.30;;;;;;;18.79;43.37;100606.34;4482955;32;34553;-51
2021/10/02 07:47:59;;;;;;;12.98;7.30;;;;;;;18.79;44.20;100611.62;4483077;32;34932;-50
2021/10/02 07:50:27;;;;;;;15.68;7.53;;;;;;;18.87;43.96;100609.72;4468687;32;34484;-48
2021/10/02 07:52:55;;;;;;;10.65;7.43;;;;;;;18.82;43.54;100603.66;4482592;32;34335;-48
2021/10/02 07:55:24;;;;;;;12.25;7.28;;;;;;;18.88;42.81;100606.16;4482596;32;33982;-47
2021/10/02 07:57:52;;;;;;;8.88;6.05;;;;;;;18.82;43.38;100611.56;4482343;32;35756;-49
2021/10/02 08:00:20;;;;;;;10.60;6.60;;;;;;;18.71;43.54;100603.88;4482110;32;34788;-48
2021/10/02 08:02:52;;;;;;;9.43;6.40;;;;;;;18.71;42.16;100613.53;4468050;32;33287;-49
2021/10/02 08:05:21;;;;;;;10.07;6.50;;;;;;;18.77;42.95;100613.44;4482230;32;34256;-48
2021/10/02 08:07:49;;;;;;;12.45;6.35;;;;;;;18.89;41.59;100602.63;4467710;32;35895;-50
2021/10/02 08:10:20;;;;;;;8.88;6.30;;;;;;;18.85;42.24;100614.16;4481983;32;35209;-47
2021/10/02 08:12:48;;;;;;;7.85;5.62;;;;;;;19.10;40.88;100610.06;4481785;32;33910;-48
2021/10/02 08:15:16;;;;;;;11.00;6.00;;;;;;;19.14;41.60;100609.09;4482139;32;33818;-48
2021/10/02 08:17:44;;;;;;;8.88;5.75;;;;;;;19.07;41.34;100610.13;4482254;32;35145;-47
2021/10/02 08:20:14;;;;;;;10.32;6.35;;;;;;;19.14;41.26;100609.09;4481374;32;34749;-49
2021/10/02 08:22:45;;;;;;;13.82;5.75;;;;;;;19.00;41.87;100616.44;4480937;32;34142;-48
2021/10/02 08:25:14;;;;;;;10.88;6.12;;;;;;;19.06;41.62;100611.06;4480775;32;34852;-48
2021/10/02 08:27:43;;;;;;;10.90;6.22;;;;;;;19.13;40.69;100606.50;4481965;32;35885;-47
2021/10/02 08:30:12;;;;;;;11.95;5.97;;;;;;;19.02;41.15;100612.00;4481349;32;34495;-47
2021/10/02 08:32:40;;;;;;;8.45;6.25;;;;;;;19.06;41.07;100611.06;4480438;32;33936;-47
2021/10/02 08:35:09;;;;;;;11.48;6.22;;;;;;;19.24;40.68;100610.63;4466491;32;33836;-47
2021/10/02 08:37:37;;;;;;;9.63;6.10;;;;;;;19.29;41.57;100603.47;4480607;32;35108;-48
2021/10/02 08:40:09;;;;;;;7.32;5.68;;;;;;;19.42;41.41;100604.13;4482132;32;34448;-46
2021/10/02 08:42:38;;;;;;;10.98;6.18;;;;;;;19.54;42.07;100609.06;4481966;32;34210;-49
2021/10/02 08:45:08;;;;;;;9.75;6.15;;;;;;;19.57;41.11;100606.37;4482292;32;34075;-47
2021/10/02 08:47:38;;;;;;;9.00;5.97;;;;;;;19.73;40.07;100602.44;4467678;32;35606;-49
2021/10/02 08:50:08;;;;;;;10.18;5.82;;;;;;;19.68;40.57;100598.19;4481931;32;35159;-50
2021/10/02 08:52:36;;;;;;;7.45;5.85;;;;;;;19.93;39.95;100599.31;4482387;32;33911;-49
2021/10/02 08:55:04;;;;;;;9.20;5.18;;;;;;;19.86;39.44;100595.97;4468308;32;33905;-47
2021/10/02 08:57:35;;;;;;;12.35;5.75;;;;;;;19.71;40.23;100598.09;4482098;32;34961;-52
2021/10/02 09:00:12;;;;;;;11.98;5.32;;;;;;;19.73;39.49;100591.88;4482120;32;34515;-49
2021/10/02 09:02:40;;;;;;;11.30;5.30;;;;;;;19.90;38.42;100592.34;4481916;32;33579;-49
2021/10/02 09:05:09;;;;;;;9.25;5.10;;;;;;;19.68;38.21;100595.56;4482535;32;34585;-52
2021/10/02 09:07:37;;;;;;;7.40;5.40;;;;;;;19.79;37.57;100589.09;4484449;32;35987;-51
2021/10/02 09:10:07;;;;;;;8.27;5.32;;;;;;;19.75;39.04;100589.22;4484267;32;35255;-51
2021/10/02 09:12:36;;;;;;;10.25;5.03;;;;;;;19.80;38.64;100597.91;4484074;32;33845;-53
2021/10/02 09:15:04;;;;;;;7.97;5.12;;;;;;;19.76;38.64;100597.09;4470429;32;34428;-53
2021/10/02 09:17:32;;;;;;;11.02;6.03;;;;;;;19.89;38.05;100589.75;4484867;32;34774;-54
2021/10/02 09:20:00;;;;;;;8.35;5.18;;;;;;;19.79;38.89;100590.88;4484903;32;34276;-48
2021/10/02 09:22:28;;;;;;;9.88;5.10;;;;;;;20.05;38.98;100585.78;4484740;32;33762;-47
2021/10/02 09:24:58;;;;;;;8.48;4.97;;;;;;;19.75;39.06;100584.81;4484828;32;33812;-48
2021/10/02 09:27:28;;;;;;;8.93;5.05;;;;;;;19.78;39.73;100573.31;4484190;32;35843;-47
2021/10/02 09:30:14;;;;;;;8.18;5.12;;;;;;;19.74;39.22;100563.72;4484837;32;35071;-49
2021/10/02 09:32:44;;;;;;;9.35;4.53;;;;;;;19.85;38.30;100573.09;4484456;32;34411;-48
2021/10/02 09:35:16;;;;;;;8.10;5.37;;;;;;;19.80;38.86;100571.50;4470351;32;33953;-48
2021/10/02 09:37:45;;;;;;;8.27;4.82;;;;;;;20.06;38.37;100576.97;4470410;32;34766;-48
2021/10/02 09:40:17;;;;;;;7.45;4.72;;;;;;;20.05;38.48;100575.22;4484633;32;35313;-50
2021/10/02 09:42:47;;;;;;;10.65;5.07;;;;;;;20.17;38.71;100570.50;4484096;32;34708;-48
2021/10/02 09:45:17;;;;;;;9.27;5.07;;;;;;;20.15;37.24;100566.16;4484826;32;34092;-47
2021/10/02 09:47:49;;;;;;;15.68;5.28;;;;;;;20.17;37.56;100551.12;4484041;32;35274;-48
2021/10/02 09:50:22;;;;;;;10.65;5.32;;;;;;;19.99;37.75;100555.13;4484365;32;35286;-48
2021/10/02 09:53:08;;;;;;;7.82;5.20;;;;;;;20.10;37.59;100562.78;4484279;32;34436;-48
2021/10/02 09:55:38;;;;;;;8.63;4.53;;;;;;;20.37;36.82;100551.50;4484070;32;34026;-48
2021/10/02 09:58:08;;;;;;;9.50;5.10;;;;;;;20.34;36.77;100546.28;4482164;32;34739;-50
2021/10/02 10:00:44;;;;;;;9.00;4.43;;;;;;;20.10;37.71;100557.50;4482828;32;34325;-48
2021/10/02 10:03:14;;;;;;;7.93;4.85;;;;;;;20.39;36.63;100548.78;4482909;32;34203;-48
2021/10/02 10:06:02;;;;;;;8.05;4.35;;;;;;;20.39;36.81;100541.75;4482855;32;34689;-47
2021/10/02 10:08:30;;;;;;;6.95;4.60;;;;;;;20.36;37.74;100541.81;4469171;32;35027;-48
2021/10/02 10:11:09;;;;;;;7.40;4.90;;;;;;;20.53;37.61;100542.22;4468647;32;34463;-47
2021/10/02 10:13:40;;;;;;;8.60;4.97;;;;;;;20.39;36.41;100536.47;4482639;32;34334;-49
2021/10/02 10:16:08;;;;;;;7.75;4.90;;;;;;;20.55;36.56;100540.38;4483271;32;33787;-47
2021/10/02 10:18:38;;;;;;;9.80;4.75;;;;;;;20.75;37.08;100530.06;4483440;32;35133;-52
2021/10/02 10:21:08;;;;;;;5.80;4.10;;;;;;;20.87;36.89;100537.63;4483740;32;34543;-48
2021/10/02 10:23:37;;;;;;;9.25;4.50;;;;;;;20.96;36.54;100535.63;4483554;32;34428;-48
2021/10/02 10:26:23;;;;;;;9.82;5.03;;;;;;;20.54;38.13;100533.34;4483174;32;33930;-48
2021/10/02 10:28:51;;;;;;;10.32;4.87;;;;;;;20.97;36.32;100532.09;4469654;32;34865;-47
2021/10/02 10:31:25;;;;;;;7.68;4.20;;;;;;;20.86;35.75;100541.22;4483370;32;34374;-48
2021/10/02 10:33:55;;;;;;;27.42;16.30;;;;;;;20.96;36.30;100531.22;4469294;32;33678;-50
2021/10/02 10:36:25;;;;;;;16.83;10.05;;;;;;;20.88;36.53;100535.87;4468841;32;33999;-48
2021/10/02 10:38:53;;;;;;;13.82;8.80;;;;;;;20.89;36.29;100533.16;4483200;32;35523;-47
2021/10/02 10:41:24;;;;;;;10.02;6.68;;;;;;;20.98;35.96;100531.16;4483526;32;35200;-48
2021/10/02 10:43:51;;;;;;;9.82;5.53;;;;;;;21.09;35.20;100515.84;4468957;32;33660;-48
2021/10/02 10:46:22;;;;;;;15.13;8.82;;;;;;;20.74;36.06;100530.12;4482482;32;34429;-49
2021/10/02 10:48:49;;;;;;;13.32;8.93;;;;;;;20.96;35.70;100522.41;4483124;32;34804;-48
2021/10/02 10:51:19;;;;;;;11.43;5.30;;;;;;;21.00;36.31;100518.75;4483106;32;35170;-49
2021/10/02 10:53:49;;;;;;;6.90;4.57;;;;;;;21.14;35.79;100514.78;4482622;32;34390;-49
2021/10/02 10:56:35;;;;;;;9.43;5.30;;;;;;;21.02;35.61;100512.50;4482150;32;34727;-48
2021/10/02 10:59:03;;;;;;;7.25;4.37;;;;;;;20.98;35.07;100512.66;4483190;32;35979;-47
2021/10/02 11:01:36;;;;;;;9.20;4.95;;;;;;;21.03;34.53;100511.59;4482089;32;34491;-48
2021/10/02 11:04:07;;;;;;;11.52;7.37;;;;;;;21.03;34.53;100511.59;4482343;32;34336;-51
2021/10/02 11:06:55;;;;;;;10.50;5.28;;;;;;;21.22;34.60;100501.31;4455895;32;34777;-50
2021/10/02 11:09:52;;;;;;;7.60;5.37;;;;;;;21.27;34.41;100499.41;4468410;32;35071;-51
2021/10/02 11:12:19;;;;;;;8.20;5.12;;;;;;;21.21;34.23;100494.28;4466494;32;34925;-49
2021/10/02 11:14:47;;;;;;;9.95;4.78;;;;;;;21.32;34.68;100492.19;4483151;32;33744;-52
2021/10/02 11:17:32;;;;;;;7.25;4.95;;;;;;;21.24;34.83;100496.84;4468941;32;33278;-49
2021/10/02 11:20:20;;;;;;;7.75;4.75;;;;;;;21.09;35.37;100499.97;4468202;32;35857;-48
2021/10/02 11:23:24;;;;;;;9.45;4.80;;;;;;;20.97;34.90;100489.78;4483234;32;34776;-54
2021/10/02 11:26:28;;;;;;;8.30;5.07;;;;;;;20.93;35.40;100481.94;4482121;32;34349;-52
2021/10/02 11:29:02;;;;;;;9.32;5.45;;;;;;;21.02;34.60;100483.41;4428316;32;34929;-50
2021/10/02 11:31:31;;;;;;;10.10;6.85;;;;;;;20.92;34.27;100482.84;4482492;32;34942;-54
2021/10/02 11:33:59;;;;;;;9.48;7.68;;;;;;;21.26;34.18;100472.06;4482148;32;34890;-50
2021/10/02 11:36:35;;;;;;;8.93;5.03;;;;;;;21.40;34.20;100480.41;4482282;32;34119;-54
2021/10/02 11:39:10;;;;;;;11.12;7.00;;;;;;;21.43;34.32;100468.84;4482157;32;34719;-54
2021/10/02 11:41:40;;;;;;;12.82;5.82;;;;;;;21.36;33.69;100472.62;4481312;32;34732;-54
2021/10/02 11:44:08;;;;;;;8.88;6.00;;;;;;;21.03;34.09;100473.72;4481641;32;34904;-51
2021/10/02 11:46:35;;;;;;;9.65;5.53;;;;;;;21.04;34.14;100465.72;4482008;32;33787;-49
2021/10/02 11:49:18;;;;;;;6.50;4.85;;;;;;;21.34;34.29;100470.06;4467401;32;34413;-54
2021/10/02 11:52:07;;;;;;;8.23;5.35;;;;;;;21.33;34.30;100460.37;4481615;32;35324;-47
2021/10/02 11:54:35;;;;;;;8.88;5.82;;;;;;;21.26;34.64;100465.91;4481571;32;34987;-48
2021/10/02 11:57:11;;;;;;;9.63;5.28;;;;;;;21.41;34.66;100471.56;4481509;32;33753;-48
2021/10/02 11:59:41;;;;;;;10.75;5.00;;;;;;;21.34;35.33;100453.31;4481764;32;34849;-48
2021/10/02 12:02:10;;;;;;;8.30;4.93;;;;;;;21.56;35.51;100441.06;4481580;32;34978;-47
2021/10/02 12:04:41;;;;;;;8.02;5.68;;;;;;;21.64;36.17;100444.28;4481279;32;34629;-48
2021/10/02 12:07:09;;;;;;;8.27;5.25;;;;;;;21.45;34.58;100443.22;4467603;32;34520;-48
2021/10/02 12:09:36;;;;;;;12.30;8.65;;;;;;;21.30;34.72;100439.28;4482052;32;34098;-47
2021/10/02 12:12:04;;;;;;;11.75;7.70;;;;;;;21.61;34.73;100436.44;4480203;32;35948;-47
2021/10/02 12:14:32;;;;;;;11.63;5.65;;;;;;;21.41;34.66;100438.94;4481739;32;34315;-47
2021/10/02 12:17:02;;;;;;;11.73;5.80;;;;;;;21.33;35.20;100435.69;4481502;32;34302;-49
2021/10/02 12:19:30;;;;;;;10.23;5.40;;;;;;;21.35;34.94;100428.56;4454262;32;33636;-47
2021/10/02 12:22:00;;;;;;;7.20;4.68;;;;;;;21.22;35.05;100437.84;4480616;32;35241;-47